sensor_id;sensor_type;location;lat;lon;timestamp;P1;durP1;ratioP1;P2;durP2;ratioP2
56285;SDS011;42191;47.562;9.686;2023-09-19T00:00:42;29.70;;;27.98;;
56285;SDS011;42191;47.562;9.686;2023-09-19T00:03:09;28.38;;;26.65;;
56285;SDS011;42191;47.562;9.686;2023-09-19T00:05:37;30.83;;;28.85;;
56285;SDS011;42191;47.562;9.686;2023-09-19T00:08:16;29.92;;;28.13;;
56285;SDS011;42191;47.562;9.686;2023-09-19T00:10:53;30.25;;;28.35;;
56285;SDS011;42191;47.562;9.686;2023-09-19T00:15:47;30.50;;;28.60;;
56285;SDS011;42191;47.562;9.686;2023-09-19T00:18:13;29.98;;;28.20;;
56285;SDS011;42191;47.562;9.686;2023-09-19T00:20:46;30.00;;;28.10;;
56285;SDS011;42191;47.562;9.686;2023-09-19T00:23:14;29.55;;;27.75;;
56285;SDS011;42191;47.562;9.686;2023-09-19T00:25:42;30.13;;;28.33;;
56285;SDS011;42191;47.562;9.686;2023-09-19T00:28:11;32.17;;;30.27;;
56285;SDS011;42191;47.562;9.686;2023-09-19T00:30:37;30.52;;;28.73;;
56285;SDS011;42191;47.562;9.686;2023-09-19T00:33:04;31.02;;;28.83;;
56285;SDS011;42191;47.562;9.686;2023-09-19T00:35:38;31.02;;;29.17;;
56285;SDS011;42191;47.562;9.686;2023-09-19T00:38:11;31.88;;;29.98;;
56285;SDS011;42191;47.562;9.686;2023-09-19T00:40:43;29.13;;;27.38;;
56285;SDS011;42191;47.562;9.686;2023-09-19T00:43:10;30.67;;;28.80;;
56285;SDS011;42191;47.562;9.686;2023-09-19T00:45:37;30.98;;;29.15;;
56285;SDS011;42191;47.562;9.686;2023-09-19T00:48:05;30.08;;;28.17;;
56285;SDS011;42191;47.562;9.686;2023-09-19T00:50:35;30.00;;;28.20;;
56285;SDS011;42191;47.562;9.686;2023-09-19T00:53:02;29.70;;;27.92;;
56285;SDS011;42191;47.562;9.686;2023-09-19T00:55:33;31.63;;;29.63;;
56285;SDS011;42191;47.562;9.686;2023-09-19T00:58:12;30.20;;;28.40;;
56285;SDS011;42191;47.562;9.686;2023-09-19T01:00:48;31.98;;;30.08;;
56285;SDS011;42191;47.562;9.686;2023-09-19T01:03:15;29.75;;;27.95;;
56285;SDS011;42191;47.562;9.686;2023-09-19T01:05:49;30.85;;;28.95;;
56285;SDS011;42191;47.562;9.686;2023-09-19T01:08:15;31.20;;;29.30;;
56285;SDS011;42191;47.562;9.686;2023-09-19T01:16:53;32.20;;;30.08;;
56285;SDS011;42191;47.562;9.686;2023-09-19T01:22:21;29.70;;;27.73;;
56285;SDS011;42191;47.562;9.686;2023-09-19T01:30:35;31.42;;;29.48;;
56285;SDS011;42191;47.562;9.686;2023-09-19T01:33:05;30.65;;;28.85;;
56285;SDS011;42191;47.562;9.686;2023-09-19T01:35:34;30.42;;;28.63;;
56285;SDS011;42191;47.562;9.686;2023-09-19T01:38:08;31.45;;;29.40;;
56285;SDS011;42191;47.562;9.686;2023-09-19T01:40:41;30.33;;;28.45;;
56285;SDS011;42191;47.562;9.686;2023-09-19T01:46:35;31.15;;;29.25;;
56285;SDS011;42191;47.562;9.686;2023-09-19T01:49:15;29.45;;;27.67;;
56285;SDS011;42191;47.562;9.686;2023-09-19T01:52:10;30.90;;;29.00;;
56285;SDS011;42191;47.562;9.686;2023-09-19T01:54:49;29.83;;;28.02;;
56285;SDS011;42191;47.562;9.686;2023-09-19T01:57:31;30.65;;;28.85;;
56285;SDS011;42191;47.562;9.686;2023-09-19T02:00:01;30.60;;;28.67;;
56285;SDS011;42191;47.562;9.686;2023-09-19T02:02:37;30.42;;;28.52;;
56285;SDS011;42191;47.562;9.686;2023-09-19T02:05:05;30.70;;;28.85;;
56285;SDS011;42191;47.562;9.686;2023-09-19T02:07:32;30.30;;;28.40;;
56285;SDS011;42191;47.562;9.686;2023-09-19T02:10:00;30.27;;;28.48;;
56285;SDS011;42191;47.562;9.686;2023-09-19T02:12:30;30.38;;;28.58;;
56285;SDS011;42191;47.562;9.686;2023-09-19T02:14:57;31.05;;;29.15;;
56285;SDS011;42191;47.562;9.686;2023-09-19T02:17:30;30.85;;;28.85;;
56285;SDS011;42191;47.562;9.686;2023-09-19T02:19:56;31.45;;;29.30;;
56285;SDS011;42191;47.562;9.686;2023-09-19T02:22:23;30.63;;;28.70;;
56285;SDS011;42191;47.562;9.686;2023-09-19T02:24:50;31.38;;;29.48;;
56285;SDS011;42191;47.562;9.686;2023-09-19T02:27:17;30.60;;;28.80;;
56285;SDS011;42191;47.562;9.686;2023-09-19T02:29:47;30.95;;;29.05;;
56285;SDS011;42191;47.562;9.686;2023-09-19T02:32:14;30.60;;;28.77;;
56285;SDS011;42191;47.562;9.686;2023-09-19T02:34:43;30.75;;;28.75;;
56285;SDS011;42191;47.562;9.686;2023-09-19T02:37:09;30.55;;;28.75;;
56285;SDS011;42191;47.562;9.686;2023-09-19T02:39:38;31.05;;;29.17;;
56285;SDS011;42191;47.562;9.686;2023-09-19T02:42:16;30.75;;;28.95;;
56285;SDS011;42191;47.562;9.686;2023-09-19T02:44:43;30.15;;;28.27;;
56285;SDS011;42191;47.562;9.686;2023-09-19T02:47:11;29.42;;;27.67;;
56285;SDS011;42191;47.562;9.686;2023-09-19T02:49:40;30.05;;;28.15;;
56285;SDS011;42191;47.562;9.686;2023-09-19T02:52:07;29.48;;;27.48;;
56285;SDS011;42191;47.562;9.686;2023-09-19T02:54:36;31.20;;;29.35;;
56285;SDS011;42191;47.562;9.686;2023-09-19T02:57:02;30.40;;;28.60;;
56285;SDS011;42191;47.562;9.686;2023-09-19T02:59:31;30.17;;;28.38;;
56285;SDS011;42191;47.562;9.686;2023-09-19T03:01:57;29.38;;;27.58;;
56285;SDS011;42191;47.562;9.686;2023-09-19T03:04:25;30.23;;;28.23;;
56285;SDS011;42191;47.562;9.686;2023-09-19T03:06:53;31.48;;;29.67;;
56285;SDS011;42191;47.562;9.686;2023-09-19T03:09:28;30.58;;;28.77;;
56285;SDS011;42191;47.562;9.686;2023-09-19T03:11:54;29.38;;;27.58;;
56285;SDS011;42191;47.562;9.686;2023-09-19T03:14:21;30.50;;;28.70;;
56285;SDS011;42191;47.562;9.686;2023-09-19T03:16:48;31.40;;;29.40;;
56285;SDS011;42191;47.562;9.686;2023-09-19T03:19:17;30.60;;;28.80;;
56285;SDS011;42191;47.562;9.686;2023-09-19T03:21:45;29.75;;;27.65;;
56285;SDS011;42191;47.562;9.686;2023-09-19T03:24:15;30.52;;;28.73;;
56285;SDS011;42191;47.562;9.686;2023-09-19T03:26:42;30.02;;;28.23;;
56285;SDS011;42191;47.562;9.686;2023-09-19T03:29:09;28.77;;;27.08;;
56285;SDS011;42191;47.562;9.686;2023-09-19T03:31:36;30.73;;;28.83;;
56285;SDS011;42191;47.562;9.686;2023-09-19T03:34:12;29.95;;;28.15;;
56285;SDS011;42191;47.562;9.686;2023-09-19T03:36:38;30.65;;;28.85;;
56285;SDS011;42191;47.562;9.686;2023-09-19T03:39:07;30.85;;;28.95;;
56285;SDS011;42191;47.562;9.686;2023-09-19T03:41:33;29.73;;;27.92;;
56285;SDS011;42191;47.562;9.686;2023-09-19T03:44:01;31.25;;;29.35;;
56285;SDS011;42191;47.562;9.686;2023-09-19T03:46:29;27.75;;;26.05;;
56285;SDS011;42191;47.562;9.686;2023-09-19T03:48:55;31.35;;;29.48;;
56285;SDS011;42191;47.562;9.686;2023-09-19T03:51:21;31.75;;;29.83;;
56285;SDS011;42191;47.562;9.686;2023-09-19T03:53:47;31.10;;;29.23;;
56285;SDS011;42191;47.562;9.686;2023-09-19T03:56:29;30.92;;;29.02;;
56285;SDS011;42191;47.562;9.686;2023-09-19T03:58:55;29.00;;;27.10;;
56285;SDS011;42191;47.562;9.686;2023-09-19T04:01:21;30.60;;;28.80;;
56285;SDS011;42191;47.562;9.686;2023-09-19T04:03:47;32.10;;;30.00;;
56285;SDS011;42191;47.562;9.686;2023-09-19T04:06:15;31.45;;;29.55;;
56285;SDS011;42191;47.562;9.686;2023-09-19T04:08:43;31.13;;;29.23;;
56285;SDS011;42191;47.562;9.686;2023-09-19T04:11:09;31.08;;;29.13;;
56285;SDS011;42191;47.562;9.686;2023-09-19T04:13:35;29.65;;;27.85;;
56285;SDS011;42191;47.562;9.686;2023-09-19T04:16:02;29.92;;;27.95;;
56285;SDS011;42191;47.562;9.686;2023-09-19T04:18:35;30.02;;;28.23;;
56285;SDS011;42191;47.562;9.686;2023-09-19T04:21:12;28.48;;;26.63;;
56285;SDS011;42191;47.562;9.686;2023-09-19T04:23:39;30.13;;;28.33;;
56285;SDS011;42191;47.562;9.686;2023-09-19T04:26:08;29.75;;;27.98;;
56285;SDS011;42191;47.562;9.686;2023-09-19T04:28:34;30.30;;;28.30;;
56285;SDS011;42191;47.562;9.686;2023-09-19T04:31:03;30.20;;;28.40;;
56285;SDS011;42191;47.562;9.686;2023-09-19T04:33:29;30.35;;;28.55;;
56285;SDS011;42191;47.562;9.686;2023-09-19T04:35:55;30.65;;;28.63;;
56285;SDS011;42191;47.562;9.686;2023-09-19T04:38:22;30.42;;;28.63;;
56285;SDS011;42191;47.562;9.686;2023-09-19T04:40:48;30.75;;;28.92;;
56285;SDS011;42191;47.562;9.686;2023-09-19T04:43:14;31.80;;;29.90;;
56285;SDS011;42191;47.562;9.686;2023-09-19T04:45:40;30.05;;;28.10;;
56285;SDS011;42191;47.562;9.686;2023-09-19T04:48:10;32.00;;;30.00;;
56285;SDS011;42191;47.562;9.686;2023-09-19T04:50:37;31.17;;;29.20;;
56285;SDS011;42191;47.562;9.686;2023-09-19T04:53:03;30.48;;;28.65;;
56285;SDS011;42191;47.562;9.686;2023-09-19T04:55:32;28.70;;;26.80;;
56285;SDS011;42191;47.562;9.686;2023-09-19T04:57:58;30.85;;;28.85;;
56285;SDS011;42191;47.562;9.686;2023-09-19T05:00:30;30.90;;;29.00;;
56285;SDS011;42191;47.562;9.686;2023-09-19T05:03:09;30.35;;;28.55;;
56285;SDS011;42191;47.562;9.686;2023-09-19T05:05:35;31.52;;;29.52;;
56285;SDS011;42191;47.562;9.686;2023-09-19T05:08:10;30.75;;;28.92;;
56285;SDS011;42191;47.562;9.686;2023-09-19T05:10:37;30.95;;;28.90;;
56285;SDS011;42191;47.562;9.686;2023-09-19T05:13:04;32.35;;;30.17;;
56285;SDS011;42191;47.562;9.686;2023-09-19T05:15:32;30.23;;;28.30;;
56285;SDS011;42191;47.562;9.686;2023-09-19T05:17:58;31.63;;;29.63;;
56285;SDS011;42191;47.562;9.686;2023-09-19T05:20:26;30.33;;;28.42;;
56285;SDS011;42191;47.562;9.686;2023-09-19T05:23:04;31.43;;;29.33;;
56285;SDS011;42191;47.562;9.686;2023-09-19T05:25:37;30.60;;;28.67;;
56285;SDS011;42191;47.562;9.686;2023-09-19T05:28:05;30.08;;;28.27;;
56285;SDS011;42191;47.562;9.686;2023-09-19T05:30:32;32.30;;;30.30;;
56285;SDS011;42191;47.562;9.686;2023-09-19T05:33:01;30.38;;;28.58;;
56285;SDS011;42191;47.562;9.686;2023-09-19T05:35:39;31.42;;;29.52;;
56285;SDS011;42191;47.562;9.686;2023-09-19T05:38:07;31.35;;;29.45;;
56285;SDS011;42191;47.562;9.686;2023-09-19T05:40:37;31.95;;;29.85;;
56285;SDS011;42191;47.562;9.686;2023-09-19T05:43:08;30.42;;;28.63;;
56285;SDS011;42191;47.562;9.686;2023-09-19T05:45:43;31.70;;;29.80;;
56285;SDS011;42191;47.562;9.686;2023-09-19T05:48:11;31.15;;;29.25;;
56285;SDS011;42191;47.562;9.686;2023-09-19T05:50:43;30.98;;;29.08;;
56285;SDS011;42191;47.562;9.686;2023-09-19T05:53:11;29.75;;;27.75;;
56285;SDS011;42191;47.562;9.686;2023-09-19T05:55:39;30.27;;;28.27;;
56285;SDS011;42191;47.562;9.686;2023-09-19T05:58:15;28.55;;;26.85;;
56285;SDS011;42191;47.562;9.686;2023-09-19T06:00:45;29.10;;;27.40;;
56285;SDS011;42191;47.562;9.686;2023-09-19T06:03:14;30.35;;;28.52;;
56285;SDS011;42191;47.562;9.686;2023-09-19T06:05:42;31.33;;;29.42;;
56285;SDS011;42191;47.562;9.686;2023-09-19T06:08:08;28.02;;;26.30;;
56285;SDS011;42191;47.562;9.686;2023-09-19T06:10:36;30.80;;;28.90;;
56285;SDS011;42191;47.562;9.686;2023-09-19T06:13:03;31.33;;;29.42;;
56285;SDS011;42191;47.562;9.686;2023-09-19T06:15:30;31.17;;;29.27;;
56285;SDS011;42191;47.562;9.686;2023-09-19T06:17:58;30.77;;;28.88;;
56285;SDS011;42191;47.562;9.686;2023-09-19T06:20:27;32.55;;;30.60;;
56285;SDS011;42191;47.562;9.686;2023-09-19T06:22:53;31.88;;;29.98;;
56285;SDS011;42191;47.562;9.686;2023-09-19T06:25:19;31.38;;;29.27;;
56285;SDS011;42191;47.562;9.686;2023-09-19T06:27:53;29.60;;;27.70;;
56285;SDS011;42191;47.562;9.686;2023-09-19T06:30:22;30.70;;;28.70;;
56285;SDS011;42191;47.562;9.686;2023-09-19T06:32:49;31.60;;;29.70;;
56285;SDS011;42191;47.562;9.686;2023-09-19T06:35:23;30.48;;;28.65;;
56285;SDS011;42191;47.562;9.686;2023-09-19T06:37:51;31.95;;;29.75;;
56285;SDS011;42191;47.562;9.686;2023-09-19T06:40:18;30.40;;;28.35;;
56285;SDS011;42191;47.562;9.686;2023-09-19T06:42:46;31.25;;;29.35;;
56285;SDS011;42191;47.562;9.686;2023-09-19T06:45:15;31.02;;;29.02;;
56285;SDS011;42191;47.562;9.686;2023-09-19T06:47:48;30.33;;;28.45;;
56285;SDS011;42191;47.562;9.686;2023-09-19T06:50:21;30.17;;;28.27;;
56285;SDS011;42191;47.562;9.686;2023-09-19T06:52:49;31.52;;;29.25;;
56285;SDS011;42191;47.562;9.686;2023-09-19T06:55:20;31.55;;;29.58;;
56285;SDS011;42191;47.562;9.686;2023-09-19T06:57:50;30.27;;;28.42;;
56285;SDS011;42191;47.562;9.686;2023-09-19T07:00:16;29.88;;;27.92;;
56285;SDS011;42191;47.562;9.686;2023-09-19T07:08:15;29.15;;;27.35;;
56285;SDS011;42191;47.562;9.686;2023-09-19T07:10:43;30.17;;;28.27;;
56285;SDS011;42191;47.562;9.686;2023-09-19T07:13:16;30.35;;;28.45;;
56285;SDS011;42191;47.562;9.686;2023-09-19T07:15:43;29.85;;;28.05;;
56285;SDS011;42191;47.562;9.686;2023-09-19T07:18:19;31.02;;;29.02;;
56285;SDS011;42191;47.562;9.686;2023-09-19T07:20:45;28.50;;;26.70;;
56285;SDS011;42191;47.562;9.686;2023-09-19T07:23:15;29.52;;;27.65;;
56285;SDS011;42191;47.562;9.686;2023-09-19T07:25:46;30.63;;;28.48;;
56285;SDS011;42191;47.562;9.686;2023-09-19T07:28:13;29.67;;;27.77;;
56285;SDS011;42191;47.562;9.686;2023-09-19T07:30:40;29.83;;;27.98;;
56285;SDS011;42191;47.562;9.686;2023-09-19T07:33:06;29.27;;;27.27;;
56285;SDS011;42191;47.562;9.686;2023-09-19T07:35:36;29.25;;;27.25;;
56285;SDS011;42191;47.562;9.686;2023-09-19T07:38:05;30.27;;;28.38;;
56285;SDS011;42191;47.562;9.686;2023-09-19T07:40:32;29.35;;;27.55;;
56285;SDS011;42191;47.562;9.686;2023-09-19T07:43:09;28.35;;;26.65;;
56285;SDS011;42191;47.562;9.686;2023-09-19T07:45:36;29.42;;;27.63;;
56285;SDS011;42191;47.562;9.686;2023-09-19T07:48:02;27.85;;;26.15;;
56285;SDS011;42191;47.562;9.686;2023-09-19T07:50:40;28.40;;;26.58;;
56285;SDS011;42191;47.562;9.686;2023-09-19T07:53:08;28.83;;;26.98;;
56285;SDS011;42191;47.562;9.686;2023-09-19T07:55:35;29.35;;;27.65;;
56285;SDS011;42191;47.562;9.686;2023-09-19T07:58:01;28.67;;;26.98;;
56285;SDS011;42191;47.562;9.686;2023-09-19T08:00:30;28.95;;;27.13;;
56285;SDS011;42191;47.562;9.686;2023-09-19T08:02:59;28.50;;;26.80;;
56285;SDS011;42191;47.562;9.686;2023-09-19T08:05:26;28.92;;;27.13;;
56285;SDS011;42191;47.562;9.686;2023-09-19T08:07:53;29.88;;;28.02;;
56285;SDS011;42191;47.562;9.686;2023-09-19T08:10:21;28.17;;;26.50;;
56285;SDS011;42191;47.562;9.686;2023-09-19T08:12:48;28.67;;;26.95;;
56285;SDS011;42191;47.562;9.686;2023-09-19T08:15:21;28.60;;;26.90;;
56285;SDS011;42191;47.562;9.686;2023-09-19T08:17:47;29.67;;;27.88;;
56285;SDS011;42191;47.562;9.686;2023-09-19T08:20:17;31.20;;;29.30;;
56285;SDS011;42191;47.562;9.686;2023-09-19T08:22:53;29.05;;;27.25;;
56285;SDS011;42191;47.562;9.686;2023-09-19T08:25:23;27.15;;;25.55;;
56285;SDS011;42191;47.562;9.686;2023-09-19T08:27:53;29.35;;;27.55;;
56285;SDS011;42191;47.562;9.686;2023-09-19T08:30:23;29.13;;;27.42;;
56285;SDS011;42191;47.562;9.686;2023-09-19T08:35:45;27.13;;;25.17;;
56285;SDS011;42191;47.562;9.686;2023-09-19T08:38:11;29.55;;;27.67;;
56285;SDS011;42191;47.562;9.686;2023-09-19T08:40:39;28.92;;;27.13;;
56285;SDS011;42191;47.562;9.686;2023-09-19T08:43:07;29.15;;;27.45;;
56285;SDS011;42191;47.562;9.686;2023-09-19T08:45:38;29.33;;;27.52;;
56285;SDS011;42191;47.562;9.686;2023-09-19T08:48:10;29.25;;;27.48;;
56285;SDS011;42191;47.562;9.686;2023-09-19T08:50:58;29.27;;;27.58;;
56285;SDS011;42191;47.562;9.686;2023-09-19T08:56:18;29.15;;;27.35;;
56285;SDS011;42191;47.562;9.686;2023-09-19T08:58:50;28.38;;;26.67;;
56285;SDS011;42191;47.562;9.686;2023-09-19T09:01:33;29.80;;;27.80;;
56285;SDS011;42191;47.562;9.686;2023-09-19T09:04:00;28.73;;;26.92;;
56285;SDS011;42191;47.562;9.686;2023-09-19T09:06:27;28.88;;;26.80;;
56285;SDS011;42191;47.562;9.686;2023-09-19T09:08:54;29.00;;;27.23;;
56285;SDS011;42191;47.562;9.686;2023-09-19T09:11:21;28.25;;;26.55;;
56285;SDS011;42191;47.562;9.686;2023-09-19T09:13:49;28.85;;;27.05;;
56285;SDS011;42191;47.562;9.686;2023-09-19T09:16:16;27.15;;;25.45;;
56285;SDS011;42191;47.562;9.686;2023-09-19T09:18:43;29.55;;;27.45;;
56285;SDS011;42191;47.562;9.686;2023-09-19T09:21:11;29.25;;;27.30;;
56285;SDS011;42191;47.562;9.686;2023-09-19T09:23:39;28.67;;;26.88;;
56285;SDS011;42191;47.562;9.686;2023-09-19T09:26:07;29.52;;;27.73;;
56285;SDS011;42191;47.562;9.686;2023-09-19T09:28:34;28.92;;;27.02;;
56285;SDS011;42191;47.562;9.686;2023-09-19T09:31:04;27.77;;;25.90;;
56285;SDS011;42191;47.562;9.686;2023-09-19T09:33:34;30.00;;;27.95;;
56285;SDS011;42191;47.562;9.686;2023-09-19T09:36:01;29.25;;;27.50;;
56285;SDS011;42191;47.562;9.686;2023-09-19T09:38:44;29.10;;;27.20;;
56285;SDS011;42191;47.562;9.686;2023-09-19T09:41:13;29.07;;;27.23;;
56285;SDS011;42191;47.562;9.686;2023-09-19T09:43:53;29.63;;;27.83;;
56285;SDS011;42191;47.562;9.686;2023-09-19T09:46:25;29.35;;;27.40;;
56285;SDS011;42191;47.562;9.686;2023-09-19T09:54:22;28.58;;;26.60;;
56285;SDS011;42191;47.562;9.686;2023-09-19T09:56:59;29.90;;;27.92;;
56285;SDS011;42191;47.562;9.686;2023-09-19T09:59:50;28.23;;;26.52;;
56285;SDS011;42191;47.562;9.686;2023-09-19T10:02:25;29.25;;;27.40;;
56285;SDS011;42191;47.562;9.686;2023-09-19T10:05:18;28.92;;;26.95;;
56285;SDS011;42191;47.562;9.686;2023-09-19T10:07:46;27.83;;;26.13;;
56285;SDS011;42191;47.562;9.686;2023-09-19T10:10:29;28.83;;;27.02;;
56285;SDS011;42191;47.562;9.686;2023-09-19T10:13:05;28.70;;;26.80;;
56285;SDS011;42191;47.562;9.686;2023-09-19T10:15:32;29.30;;;27.48;;
56285;SDS011;42191;47.562;9.686;2023-09-19T10:18:01;28.40;;;26.65;;
56285;SDS011;42191;47.562;9.686;2023-09-19T10:20:29;28.95;;;26.95;;
56285;SDS011;42191;47.562;9.686;2023-09-19T10:23:06;28.02;;;26.23;;
56285;SDS011;42191;47.562;9.686;2023-09-19T10:25:40;29.20;;;27.40;;
56285;SDS011;42191;47.562;9.686;2023-09-19T10:28:14;27.58;;;25.77;;
56285;SDS011;42191;47.562;9.686;2023-09-19T10:30:47;30.02;;;28.02;;
56285;SDS011;42191;47.562;9.686;2023-09-19T10:33:16;29.05;;;27.25;;
56285;SDS011;42191;47.562;9.686;2023-09-19T10:35:46;28.48;;;26.77;;
56285;SDS011;42191;47.562;9.686;2023-09-19T10:38:23;29.80;;;28.00;;
56285;SDS011;42191;47.562;9.686;2023-09-19T10:40:53;28.42;;;26.52;;
56285;SDS011;42191;47.562;9.686;2023-09-19T10:43:25;28.13;;;26.42;;
56285;SDS011;42191;47.562;9.686;2023-09-19T10:45:55;28.75;;;26.95;;
56285;SDS011;42191;47.562;9.686;2023-09-19T10:48:42;27.08;;;25.40;;
56285;SDS011;42191;47.562;9.686;2023-09-19T10:51:13;28.60;;;26.80;;
56285;SDS011;42191;47.562;9.686;2023-09-19T10:56:23;28.48;;;26.77;;
56285;SDS011;42191;47.562;9.686;2023-09-19T10:58:53;28.40;;;26.70;;
56285;SDS011;42191;47.562;9.686;2023-09-19T11:09:48;27.75;;;26.05;;
56285;SDS011;42191;47.562;9.686;2023-09-19T11:14:56;28.65;;;26.90;;
56285;SDS011;42191;47.562;9.686;2023-09-19T11:17:33;26.55;;;24.95;;
56285;SDS011;42191;47.562;9.686;2023-09-19T11:30:49;28.67;;;26.98;;
56285;SDS011;42191;47.562;9.686;2023-09-19T11:33:27;28.60;;;26.90;;
56285;SDS011;42191;47.562;9.686;2023-09-19T11:44:31;27.27;;;25.60;;
56285;SDS011;42191;47.562;9.686;2023-09-19T11:49:26;27.08;;;25.48;;
56285;SDS011;42191;47.562;9.686;2023-09-19T11:51:58;27.63;;;25.92;;
56285;SDS011;42191;47.562;9.686;2023-09-19T11:54:30;27.10;;;25.50;;
56285;SDS011;42191;47.562;9.686;2023-09-19T11:56:57;28.60;;;26.90;;
56285;SDS011;42191;47.562;9.686;2023-09-19T11:59:25;26.88;;;25.23;;
56285;SDS011;42191;47.562;9.686;2023-09-19T12:01:58;27.60;;;25.90;;
56285;SDS011;42191;47.562;9.686;2023-09-19T12:04:40;27.85;;;26.17;;
56285;SDS011;42191;47.562;9.686;2023-09-19T12:07:12;28.02;;;26.33;;
56285;SDS011;42191;47.562;9.686;2023-09-19T12:09:44;28.10;;;26.40;;
56285;SDS011;42191;47.562;9.686;2023-09-19T12:12:26;27.73;;;26.02;;
56285;SDS011;42191;47.562;9.686;2023-09-19T12:14:53;26.50;;;24.90;;
56285;SDS011;42191;47.562;9.686;2023-09-19T12:17:22;27.15;;;25.45;;
56285;SDS011;42191;47.562;9.686;2023-09-19T12:20:01;27.40;;;25.70;;
56285;SDS011;42191;47.562;9.686;2023-09-19T12:22:44;27.25;;;25.65;;
56285;SDS011;42191;47.562;9.686;2023-09-19T12:25:14;28.67;;;26.88;;
56285;SDS011;42191;47.562;9.686;2023-09-19T12:30:12;27.92;;;26.20;;
56285;SDS011;42191;47.562;9.686;2023-09-19T12:32:44;28.50;;;26.80;;
56285;SDS011;42191;47.562;9.686;2023-09-19T12:35:10;27.80;;;26.10;;
56285;SDS011;42191;47.562;9.686;2023-09-19T12:37:56;27.30;;;25.67;;
56285;SDS011;42191;47.562;9.686;2023-09-19T12:40:23;27.60;;;26.00;;
56285;SDS011;42191;47.562;9.686;2023-09-19T12:43:02;27.67;;;25.98;;
56285;SDS011;42191;47.562;9.686;2023-09-19T12:45:32;28.98;;;27.08;;
56285;SDS011;42191;47.562;9.686;2023-09-19T12:51:06;28.60;;;26.80;;
56285;SDS011;42191;47.562;9.686;2023-09-19T12:53:42;28.23;;;26.55;;
56285;SDS011;42191;47.562;9.686;2023-09-19T12:56:14;27.70;;;26.02;;
56285;SDS011;42191;47.562;9.686;2023-09-19T12:58:55;28.05;;;26.35;;
56285;SDS011;42191;47.562;9.686;2023-09-19T13:01:41;28.27;;;26.58;;
56285;SDS011;42191;47.562;9.686;2023-09-19T13:04:16;27.17;;;25.58;;
56285;SDS011;42191;47.562;9.686;2023-09-19T13:06:50;28.40;;;26.70;;
56285;SDS011;42191;47.562;9.686;2023-09-19T13:09:17;28.70;;;27.00;;
56285;SDS011;42191;47.562;9.686;2023-09-19T13:11:45;27.65;;;26.05;;
56285;SDS011;42191;47.562;9.686;2023-09-19T13:14:17;28.25;;;26.55;;
56285;SDS011;42191;47.562;9.686;2023-09-19T13:17:10;27.92;;;26.20;;
56285;SDS011;42191;47.562;9.686;2023-09-19T13:19:44;26.48;;;24.63;;
56285;SDS011;42191;47.562;9.686;2023-09-19T13:25:30;26.67;;;25.08;;
56285;SDS011;42191;47.562;9.686;2023-09-19T13:27:58;29.42;;;27.67;;
56285;SDS011;42191;47.562;9.686;2023-09-19T13:30:25;27.58;;;25.85;;
56285;SDS011;42191;47.562;9.686;2023-09-19T13:33:09;26.05;;;24.50;;
56285;SDS011;42191;47.562;9.686;2023-09-19T13:35:36;25.58;;;24.05;;
56285;SDS011;42191;47.562;9.686;2023-09-19T13:38:05;24.02;;;22.42;;
56285;SDS011;42191;47.562;9.686;2023-09-19T13:40:34;24.05;;;22.55;;
56285;SDS011;42191;47.562;9.686;2023-09-19T13:43:02;23.70;;;22.10;;
56285;SDS011;42191;47.562;9.686;2023-09-19T13:45:46;23.13;;;21.83;;
56285;SDS011;42191;47.562;9.686;2023-09-19T13:48:13;22.58;;;21.17;;
56285;SDS011;42191;47.562;9.686;2023-09-19T13:50:51;22.63;;;21.23;;
56285;SDS011;42191;47.562;9.686;2023-09-19T13:53:17;21.90;;;20.60;;
56285;SDS011;42191;47.562;9.686;2023-09-19T13:55:45;22.45;;;21.05;;
56285;SDS011;42191;47.562;9.686;2023-09-19T13:58:13;21.90;;;20.60;;
56285;SDS011;42191;47.562;9.686;2023-09-19T14:00:39;21.90;;;20.60;;
56285;SDS011;42191;47.562;9.686;2023-09-19T14:03:12;21.67;;;20.38;;
56285;SDS011;42191;47.562;9.686;2023-09-19T14:05:40;21.05;;;19.75;;
56285;SDS011;42191;47.562;9.686;2023-09-19T14:08:07;22.45;;;21.00;;
56285;SDS011;42191;47.562;9.686;2023-09-19T14:10:33;21.92;;;20.60;;
56285;SDS011;42191;47.562;9.686;2023-09-19T14:13:00;21.85;;;20.55;;
56285;SDS011;42191;47.562;9.686;2023-09-19T14:15:29;21.25;;;19.95;;
56285;SDS011;42191;47.562;9.686;2023-09-19T14:18:00;21.52;;;20.23;;
56285;SDS011;42191;47.562;9.686;2023-09-19T14:20:27;22.10;;;20.77;;
56285;SDS011;42191;47.562;9.686;2023-09-19T14:22:54;20.88;;;19.65;;
56285;SDS011;42191;47.562;9.686;2023-09-19T14:25:20;22.17;;;20.77;;
56285;SDS011;42191;47.562;9.686;2023-09-19T14:27:47;22.10;;;20.80;;
56285;SDS011;42191;47.562;9.686;2023-09-19T14:30:19;21.85;;;20.55;;
56285;SDS011;42191;47.562;9.686;2023-09-19T14:32:46;22.05;;;20.65;;
56285;SDS011;42191;47.562;9.686;2023-09-19T14:35:13;22.85;;;21.48;;
56285;SDS011;42191;47.562;9.686;2023-09-19T14:37:39;22.05;;;20.75;;
56285;SDS011;42191;47.562;9.686;2023-09-19T14:40:06;22.42;;;21.10;;
56285;SDS011;42191;47.562;9.686;2023-09-19T14:42:34;22.52;;;21.13;;
56285;SDS011;42191;47.562;9.686;2023-09-19T14:45:05;21.73;;;20.42;;
56285;SDS011;42191;47.562;9.686;2023-09-19T14:47:32;21.85;;;20.55;;
56285;SDS011;42191;47.562;9.686;2023-09-19T14:49:59;22.02;;;20.73;;
56285;SDS011;42191;47.562;9.686;2023-09-19T14:52:27;21.75;;;20.45;;
56285;SDS011;42191;47.562;9.686;2023-09-19T14:54:55;22.23;;;20.83;;
56285;SDS011;42191;47.562;9.686;2023-09-19T14:57:24;21.67;;;20.42;;
56285;SDS011;42191;47.562;9.686;2023-09-19T14:59:52;22.33;;;20.67;;
56285;SDS011;42191;47.562;9.686;2023-09-19T15:02:19;21.80;;;20.50;;
56285;SDS011;42191;47.562;9.686;2023-09-19T15:04:46;21.67;;;20.38;;
56285;SDS011;42191;47.562;9.686;2023-09-19T15:07:13;22.13;;;20.83;;
56285;SDS011;42191;47.562;9.686;2023-09-19T15:09:40;21.83;;;20.52;;
56285;SDS011;42191;47.562;9.686;2023-09-19T15:12:07;22.30;;;21.00;;
56285;SDS011;42191;47.562;9.686;2023-09-19T15:14:33;21.77;;;20.48;;
56285;SDS011;42191;47.562;9.686;2023-09-19T15:16:59;21.60;;;20.30;;
56285;SDS011;42191;47.562;9.686;2023-09-19T15:19:26;22.25;;;20.95;;
56285;SDS011;42191;47.562;9.686;2023-09-19T15:21:52;22.10;;;20.77;;
56285;SDS011;42191;47.562;9.686;2023-09-19T15:24:18;21.95;;;20.65;;
56285;SDS011;42191;47.562;9.686;2023-09-19T15:26:46;21.95;;;20.65;;
56285;SDS011;42191;47.562;9.686;2023-09-19T15:29:12;21.85;;;20.55;;
56285;SDS011;42191;47.562;9.686;2023-09-19T15:31:39;21.48;;;20.17;;
56285;SDS011;42191;47.562;9.686;2023-09-19T15:34:06;22.00;;;20.67;;
56285;SDS011;42191;47.562;9.686;2023-09-19T15:36:33;22.23;;;20.92;;
56285;SDS011;42191;47.562;9.686;2023-09-19T15:39:03;21.80;;;20.50;;
56285;SDS011;42191;47.562;9.686;2023-09-19T15:41:39;22.10;;;20.80;;
56285;SDS011;42191;47.562;9.686;2023-09-19T15:44:13;21.23;;;19.83;;
56285;SDS011;42191;47.562;9.686;2023-09-19T15:46:41;21.90;;;20.60;;
56285;SDS011;42191;47.562;9.686;2023-09-19T15:49:09;22.17;;;20.83;;
56285;SDS011;42191;47.562;9.686;2023-09-19T15:51:36;22.10;;;20.70;;
56285;SDS011;42191;47.562;9.686;2023-09-19T15:54:09;22.77;;;21.40;;
56285;SDS011;42191;47.562;9.686;2023-09-19T15:56:39;22.70;;;21.40;;
56285;SDS011;42191;47.562;9.686;2023-09-19T15:59:06;22.92;;;21.52;;